Capitol Logistics 106


KSEA
Seattle-Tacoma International Airport
Seattle, Washington, US
PANC
Ted Stevens Anchorage International Airport
Anchorage, Alaska, US

Route Details

Aircraft Information
Primary: Boeing 747-400BCF
Backup: Boeing 777-200LRF
Route Data
Distance: 1257nm
Sched. Duration: 3h 45m
Avg. Duration: 3h 22m (-23m)
Times Flown: 7
Recm'd Route: BANGR9 ARRIE FOCHE PRYCE BKA LAIRE JOH WITTI4
Planned Altitude: 34,000ft
Origin Wx: KSEA 310553Z 20006KT 7SM SCT009 BKN017 OVC042 06/04 A2991 RMK AO2 RAB04E46 SLP137 P0002 60003 T00560044 10072 20056 53003
Dest. Wx: PANC 310553Z 17004KT 10SM CLR M06/M14 A3002 RMK AO2 SLP168 4/019 T10561139 10006 21056 53018 $
Notes:

Financial History
Total Freight: 824,298lbs
Average Load: 117,757lbs/flt
Fuel Used: 333,041lbs
Avg. Fuel Used: 47,577lbs/flt
Fuel Expense: $373,006
Avg. Fuel Expense: $53,287
Avg. Fuel Cost: $1.12/lbs
Total Gross Income: $1,047,888
Pilot Pay: $1,203
Total Expenses: $113,536
Total Revenue: $557,016
Average Revenue: $149,698.25